Time;durP1;ratioP1;P1;durP2;ratioP2;P2;SDS_P1;SDS_P2;PMS_P1;PMS_P2;Temp;Humidity;BMP_temperature;BMP_pressure;BME280_temperature;BME280_humidity;BME280_pressure;Samples;Min_cycle;Max_cycle;Signal;HPM_P1;HPM_P2
2023/03/20 00:00:51;;;;;;;3.65;2.92;;;;;;;;;;5069359;28;20259;-52
2023/03/20 00:03:18;;;;;;;3.40;3.10;;;;;;;;;;5076928;28;20266;-51
2023/03/20 00:05:44;;;;;;;2.40;2.20;;;;;;;;;;5087255;28;20242;-52
2023/03/20 00:08:11;;;;;;;4.72;2.78;;;;;;;;;;5080025;28;20261;-52
2023/03/20 00:10:39;;;;;;;3.45;2.90;;;;;;;;;;5064325;28;20536;-52
2023/03/20 00:13:07;;;;;;;3.42;3.13;;;;;;;;;;5065034;28;20235;-54
2023/03/20 00:15:37;;;;;;;3.72;2.75;;;;;;;;;;5067904;28;20322;-53
2023/03/20 00:18:05;;;;;;;3.20;2.90;;;;;;;;;;5068525;28;20238;-51
2023/03/20 00:20:31;;;;;;;3.33;2.67;;;;;;;;;;5067880;28;20266;-52
2023/03/20 00:22:58;;;;;;;3.83;2.90;;;;;;;;;;5067008;28;20288;-52
2023/03/20 00:25:25;;;;;;;3.85;3.20;;;;;;;;;;5066169;28;20553;-52
2023/03/20 00:27:52;;;;;;;3.70;3.40;;;;;;;;;;5068666;28;20231;-52
2023/03/20 00:30:21;;;;;;;3.33;3.03;;;;;;;;;;5067748;28;20234;-53
2023/03/20 00:32:50;;;;;;;4.13;3.20;;;;;;;;;;5067349;28;20235;-51
2023/03/20 00:35:18;;;;;;;3.43;3.13;;;;;;;;;;5065588;28;20238;-59
2023/03/20 00:37:45;;;;;;;3.00;2.70;;;;;;;;;;5058114;28;20235;-51
2023/03/20 00:40:12;;;;;;;3.88;3.58;;;;;;;;;;5064325;28;20239;-51
2023/03/20 00:42:39;;;;;;;3.35;3.03;;;;;;;;;;5063876;28;20309;-52
2023/03/20 00:45:06;;;;;;;3.78;3.40;;;;;;;;;;5065702;28;20235;-53
2023/03/20 00:47:33;;;;;;;3.80;3.23;;;;;;;;;;5052282;28;20224;-52
2023/03/20 00:50:01;;;;;;;5.27;3.30;;;;;;;;;;5073630;28;20227;-53
2023/03/20 00:52:28;;;;;;;5.07;2.93;;;;;;;;;;5064347;28;20257;-50
2023/03/20 00:54:55;;;;;;;4.27;3.23;;;;;;;;;;5061546;28;20233;-51
2023/03/20 00:57:24;;;;;;;4.40;4.00;;;;;;;;;;5066820;28;20226;-51
2023/03/20 00:59:52;;;;;;;4.43;3.63;;;;;;;;;;5062841;28;20231;-52
2023/03/20 01:02:19;;;;;;;4.23;3.70;;;;;;;;;;5064442;28;20599;-52
2023/03/20 01:04:47;;;;;;;3.37;3.07;;;;;;;;;;5064762;28;20238;-52
2023/03/20 01:07:15;;;;;;;3.63;3.30;;;;;;;;;;5063789;28;20291;-51
2023/03/20 01:09:42;;;;;;;4.00;3.60;;;;;;;;;;5062761;28;20235;-51
2023/03/20 01:12:10;;;;;;;3.87;3.57;;;;;;;;;;5061842;28;20235;-52
2023/03/20 01:14:37;;;;;;;9.83;4.30;;;;;;;;;;5063019;28;20238;-53
2023/03/20 01:17:03;;;;;;;5.80;4.30;;;;;;;;;;5063728;28;20246;-51
2023/03/20 01:19:30;;;;;;;4.27;3.87;;;;;;;;;;5062643;28;20668;-52
2023/03/20 01:21:56;;;;;;;4.60;3.97;;;;;;;;;;5062477;28;20322;-52
2023/03/20 01:24:25;;;;;;;5.63;4.30;;;;;;;;;;5062510;28;20599;-52
2023/03/20 01:26:53;;;;;;;4.17;3.77;;;;;;;;;;5065321;28;20259;-52
2023/03/20 01:29:21;;;;;;;3.83;3.53;;;;;;;;;;5061528;28;20245;-51
2023/03/20 01:31:48;;;;;;;4.33;3.93;;;;;;;;;;5061757;28;20317;-52
2023/03/20 01:34:16;;;;;;;4.20;3.73;;;;;;;;;;5062901;28;20327;-52
2023/03/20 01:36:45;;;;;;;4.43;3.50;;;;;;;;;;5061475;28;20250;-53
2023/03/20 01:39:11;;;;;;;3.87;3.57;;;;;;;;;;5061777;28;20512;-52
2023/03/20 01:41:39;;;;;;;5.87;3.87;;;;;;;;;;5065329;28;20638;-50
2023/03/20 01:44:15;;;;;;;3.90;3.50;;;;;;;;;;5063836;28;20288;-52
2023/03/20 01:46:42;;;;;;;4.63;3.70;;;;;;;;;;5061240;28;20709;-51
2023/03/20 01:49:29;;;;;;;3.93;3.53;;;;;;;;;;5058286;28;20250;-51
2023/03/20 01:51:56;;;;;;;4.63;4.23;;;;;;;;;;5060975;28;20242;-52
2023/03/20 01:54:24;;;;;;;3.93;3.53;;;;;;;;;;5062679;28;20325;-51
2023/03/20 01:56:54;;;;;;;4.63;4.10;;;;;;;;;;5061941;28;20238;-51
2023/03/20 01:59:24;;;;;;;3.72;3.42;;;;;;;;;;5064874;28;20227;-51
2023/03/20 02:01:51;;;;;;;5.80;3.75;;;;;;;;;;5062142;28;20611;-52
2023/03/20 02:04:20;;;;;;;4.07;3.67;;;;;;;;;;5053364;28;20277;-51
2023/03/20 02:06:46;;;;;;;4.73;4.33;;;;;;;;;;5055335;28;20755;-51
2023/03/20 02:09:13;;;;;;;6.33;4.10;;;;;;;;;;5056387;28;20311;-53
2023/03/20 02:11:41;;;;;;;4.95;4.50;;;;;;;;;;5059908;28;20258;-52
2023/03/20 02:14:09;;;;;;;4.07;3.50;;;;;;;;;;5063071;28;20255;-51
2023/03/20 02:16:36;;;;;;;4.40;4.07;;;;;;;;;;5062834;28;20239;-51
2023/03/20 02:19:03;;;;;;;5.13;3.80;;;;;;;;;;5060476;28;20690;-52
2023/03/20 02:21:48;;;;;;;5.57;4.20;;;;;;;;;;5064369;28;20250;-52
2023/03/20 02:24:27;;;;;;;5.00;4.10;;;;;;;;;;5060667;28;20307;-52
2023/03/20 02:26:59;;;;;;;6.53;4.83;;;;;;;;;;5069545;28;20243;-51
2023/03/20 02:29:45;;;;;;;6.63;4.20;;;;;;;;;;5065539;28;20235;-52
2023/03/20 02:32:26;;;;;;;4.30;3.90;;;;;;;;;;5065614;28;20729;-52
2023/03/20 02:35:14;;;;;;;6.53;4.37;;;;;;;;;;5066565;28;20318;-51
2023/03/20 02:37:52;;;;;;;4.40;4.03;;;;;;;;;;5068560;28;20246;-51
2023/03/20 02:40:25;;;;;;;5.67;4.47;;;;;;;;;;5067515;28;20772;-53
2023/03/20 02:42:56;;;;;;;5.10;3.97;;;;;;;;;;5067362;28;20787;-52
2023/03/20 02:45:26;;;;;;;4.37;3.97;;;;;;;;;;5068674;28;20314;-51
2023/03/20 02:47:57;;;;;;;6.43;4.70;;;;;;;;;;5073972;28;20721;-52
2023/03/20 02:50:27;;;;;;;6.17;5.13;;;;;;;;;;5068909;28;20342;-51
2023/03/20 02:52:59;;;;;;;5.40;4.90;;;;;;;;;;5064641;28;20312;-52
2023/03/20 02:55:28;;;;;;;4.33;3.93;;;;;;;;;;5066017;28;20254;-52
2023/03/20 02:57:58;;;;;;;5.87;4.40;;;;;;;;;;5064584;28;20326;-51
2023/03/20 03:00:27;;;;;;;5.23;4.73;;;;;;;;;;5065542;28;20260;-53
2023/03/20 03:02:59;;;;;;;4.70;4.30;;;;;;;;;;5064925;28;20288;-52
2023/03/20 03:05:30;;;;;;;4.77;4.37;;;;;;;;;;5064641;28;20223;-53
2023/03/20 03:07:59;;;;;;;5.23;4.73;;;;;;;;;;5066577;28;20246;-51
2023/03/20 03:10:29;;;;;;;6.23;5.50;;;;;;;;;;5064426;28;20247;-51
2023/03/20 03:12:56;;;;;;;6.43;5.83;;;;;;;;;;5065811;28;20716;-51
2023/03/20 03:15:26;;;;;;;5.50;5.00;;;;;;;;;;5064290;28;20323;-51
2023/03/20 03:17:52;;;;;;;5.70;4.97;;;;;;;;;;5065696;28;20255;-51
2023/03/20 03:20:22;;;;;;;5.33;4.83;;;;;;;;;;5064825;28;20231;-51
2023/03/20 03:22:48;;;;;;;5.30;4.80;;;;;;;;;;5063421;28;20334;-51
2023/03/20 03:25:17;;;;;;;6.23;5.57;;;;;;;;;;5065685;28;20731;-51
2023/03/20 03:27:46;;;;;;;6.67;5.83;;;;;;;;;;5058485;28;20281;-51
2023/03/20 03:30:16;;;;;;;6.53;5.30;;;;;;;;;;5061693;28;20235;-51
2023/03/20 03:32:46;;;;;;;6.27;4.70;;;;;;;;;;5062848;28;20228;-51
2023/03/20 03:35:15;;;;;;;6.23;5.43;;;;;;;;;;5063969;28;20254;-52
2023/03/20 03:37:46;;;;;;;6.43;5.60;;;;;;;;;;5063971;28;20223;-51
2023/03/20 03:40:19;;;;;;;9.00;6.87;;;;;;;;;;5064327;28;20235;-51
2023/03/20 03:42:51;;;;;;;6.30;5.67;;;;;;;;;;5061810;28;20234;-52
2023/03/20 03:45:20;;;;;;;6.63;6.03;;;;;;;;;;5064066;28;20773;-51
2023/03/20 03:47:51;;;;;;;6.37;5.67;;;;;;;;;;5060343;28;20247;-51
2023/03/20 03:50:20;;;;;;;6.57;5.97;;;;;;;;;;5059491;28;20323;-52
2023/03/20 03:52:48;;;;;;;7.10;5.83;;;;;;;;;;5060126;28;20231;-52
2023/03/20 03:55:16;;;;;;;6.20;5.70;;;;;;;;;;5059809;28;20242;-52
2023/03/20 03:57:45;;;;;;;6.93;5.50;;;;;;;;;;5062278;28;20736;-52
2023/03/20 04:00:14;;;;;;;5.80;5.30;;;;;;;;;;5058539;28;20293;-50
2023/03/20 04:02:41;;;;;;;7.53;6.57;;;;;;;;;;5063002;28;20732;-51
2023/03/20 04:05:09;;;;;;;7.00;6.40;;;;;;;;;;5064329;28;20757;-51
2023/03/20 04:07:36;;;;;;;6.90;5.73;;;;;;;;;;5064688;28;20234;-51
2023/03/20 04:10:02;;;;;;;7.33;6.20;;;;;;;;;;5064123;28;20239;-51
2023/03/20 04:12:34;;;;;;;10.63;6.27;;;;;;;;;;5059868;28;20912;-52
2023/03/20 04:15:02;;;;;;;7.43;6.23;;;;;;;;;;5060755;28;20235;-51
2023/03/20 04:17:28;;;;;;;6.90;6.20;;;;;;;;;;5062969;28;20269;-52
2023/03/20 04:19:55;;;;;;;6.50;5.90;;;;;;;;;;5066051;28;20227;-53
2023/03/20 04:22:22;;;;;;;6.57;5.63;;;;;;;;;;5064286;28;20609;-51
2023/03/20 04:24:48;;;;;;;6.53;6.03;;;;;;;;;;5064360;28;20239;-51
2023/03/20 04:27:15;;;;;;;7.53;6.10;;;;;;;;;;5062764;28;20721;-52
2023/03/20 04:29:43;;;;;;;7.10;6.43;;;;;;;;;;5062220;28;20227;-52
2023/03/20 04:32:11;;;;;;;7.93;6.10;;;;;;;;;;5063385;28;20231;-53
2023/03/20 04:34:37;;;;;;;6.20;5.60;;;;;;;;;;5062768;28;20238;-51
2023/03/20 04:37:07;;;;;;;7.33;5.67;;;;;;;;;;5059750;28;20231;-51
2023/03/20 04:39:33;;;;;;;7.20;6.30;;;;;;;;;;5065575;28;20233;-51
2023/03/20 04:42:00;;;;;;;8.73;6.93;;;;;;;;;;5060941;28;20235;-52
2023/03/20 04:44:27;;;;;;;6.97;6.30;;;;;;;;;;5066136;28;20712;-53
2023/03/20 04:46:53;;;;;;;7.47;6.77;;;;;;;;;;5064023;28;20873;-51
2023/03/20 04:49:22;;;;;;;7.97;6.80;;;;;;;;;;5070085;28;20889;-52
2023/03/20 04:51:48;;;;;;;7.80;5.87;;;;;;;;;;5065690;28;20244;-53
2023/03/20 04:54:15;;;;;;;7.07;6.40;;;;;;;;;;5068263;28;20235;-52
2023/03/20 04:56:41;;;;;;;9.20;6.70;;;;;;;;;;5070116;28;20235;-59
2023/03/20 04:59:08;;;;;;;7.17;6.47;;;;;;;;;;5061712;28;20318;-51
2023/03/20 05:01:35;;;;;;;8.67;6.67;;;;;;;;;;5062643;28;20253;-51
2023/03/20 05:04:02;;;;;;;7.77;7.07;;;;;;;;;;5062619;28;20631;-51
2023/03/20 05:06:30;;;;;;;8.17;7.07;;;;;;;;;;5063182;28;20250;-51
2023/03/20 05:08:57;;;;;;;9.23;7.80;;;;;;;;;;5063540;28;20231;-52
2023/03/20 05:11:24;;;;;;;6.87;6.27;;;;;;;;;;5062506;28;20321;-51
2023/03/20 05:13:51;;;;;;;8.90;7.83;;;;;;;;;;5064285;28;20317;-51
2023/03/20 05:16:18;;;;;;;8.30;7.30;;;;;;;;;;5062482;28;20619;-52
2023/03/20 05:18:44;;;;;;;8.67;7.87;;;;;;;;;;5062796;28;20247;-52
2023/03/20 05:21:11;;;;;;;8.33;6.93;;;;;;;;;;5068095;28;20237;-52
2023/03/20 05:23:39;;;;;;;9.20;8.30;;;;;;;;;;5066491;28;20239;-52
2023/03/20 05:26:06;;;;;;;8.80;7.87;;;;;;;;;;5064168;28;20227;-51
2023/03/20 05:28:32;;;;;;;10.73;8.63;;;;;;;;;;5065474;28;20237;-52
2023/03/20 05:30:59;;;;;;;11.00;8.77;;;;;;;;;;5066368;28;20397;-53
2023/03/20 05:33:25;;;;;;;9.23;8.30;;;;;;;;;;5076460;28;20231;-52
2023/03/20 05:35:52;;;;;;;12.57;9.07;;;;;;;;;;5068221;28;20318;-51
2023/03/20 05:38:21;;;;;;;10.40;9.30;;;;;;;;;;5063474;28;20231;-50
2023/03/20 05:40:49;;;;;;;10.07;9.10;;;;;;;;;;5061498;28;20736;-51
2023/03/20 05:43:16;;;;;;;9.57;8.67;;;;;;;;;;5062062;28;20273;-52
2023/03/20 05:45:43;;;;;;;9.97;8.97;;;;;;;;;;5063786;28;20645;-52
2023/03/20 05:48:09;;;;;;;11.47;9.07;;;;;;;;;;5060681;28;20266;-54
2023/03/20 05:50:36;;;;;;;11.73;10.07;;;;;;;;;;5063414;28;20713;-52
2023/03/20 05:53:02;;;;;;;11.63;9.57;;;;;;;;;;5062188;28;20638;-52
2023/03/20 05:55:29;;;;;;;13.53;10.67;;;;;;;;;;5060960;28;20235;-52
2023/03/20 05:57:57;;;;;;;12.00;10.67;;;;;;;;;;5063981;28;20246;-53
2023/03/20 06:00:24;;;;;;;13.63;10.37;;;;;;;;;;5066996;28;20238;-52
2023/03/20 06:02:50;;;;;;;12.23;9.97;;;;;;;;;;5066298;28;20296;-52
2023/03/20 06:05:17;;;;;;;13.13;11.83;;;;;;;;;;5068683;28;20239;-51
2023/03/20 06:07:43;;;;;;;15.70;11.73;;;;;;;;;;5065380;28;20681;-51
2023/03/20 06:10:11;;;;;;;17.00;13.40;;;;;;;;;;5062035;28;20235;-53
2023/03/20 06:12:37;;;;;;;14.13;12.63;;;;;;;;;;5067996;28;20269;-51
2023/03/20 06:15:06;;;;;;;13.80;12.40;;;;;;;;;;5065744;28;20582;-52
2023/03/20 06:17:33;;;;;;;13.17;11.80;;;;;;;;;;5066383;28;20310;-52
2023/03/20 06:19:59;;;;;;;18.60;13.07;;;;;;;;;;5067382;28;20265;-51
2023/03/20 06:22:26;;;;;;;13.07;11.77;;;;;;;;;;5065933;28;20258;-52
2023/03/20 06:24:53;;;;;;;13.87;12.33;;;;;;;;;;5059416;28;20667;-52
2023/03/20 06:27:19;;;;;;;14.07;12.60;;;;;;;;;;5066706;28;20231;-53
2023/03/20 06:29:46;;;;;;;16.80;15.10;;;;;;;;;;5066598;28;20234;-51
2023/03/20 06:32:16;;;;;;;19.93;17.77;;;;;;;;;;5067059;28;20231;-53
2023/03/20 06:34:42;;;;;;;23.03;18.07;;;;;;;;;;5065325;28;20280;-51
2023/03/20 06:37:09;;;;;;;19.67;16.77;;;;;;;;;;5060258;28;20257;-52
2023/03/20 06:39:36;;;;;;;21.20;17.47;;;;;;;;;;5061692;28;20227;-52
2023/03/20 06:42:03;;;;;;;22.83;18.20;;;;;;;;;;5065957;28;20235;-54
2023/03/20 06:44:29;;;;;;;25.00;19.43;;;;;;;;;;5066529;28;20232;-51
2023/03/20 06:46:56;;;;;;;23.20;18.60;;;;;;;;;;5065402;28;20276;-53
2023/03/20 06:49:24;;;;;;;22.47;17.77;;;;;;;;;;5063037;28;20231;-52
2023/03/20 06:51:50;;;;;;;21.90;18.60;;;;;;;;;;5063975;28;20350;-52
2023/03/20 06:54:17;;;;;;;27.77;21.30;;;;;;;;;;5063587;28;20780;-53
2023/03/20 06:56:44;;;;;;;26.37;21.27;;;;;;;;;;5066132;28;20242;-52
2023/03/20 06:59:10;;;;;;;26.10;20.97;;;;;;;;;;5065735;28;20239;-51
2023/03/20 07:01:37;;;;;;;27.17;20.00;;;;;;;;;;5066929;28;20235;-52
2023/03/20 07:04:04;;;;;;;29.10;21.10;;;;;;;;;;5066838;28;20277;-53
2023/03/20 07:06:32;;;;;;;24.17;19.33;;;;;;;;;;5066422;28;20713;-51
2023/03/20 07:09:00;;;;;;;29.53;22.77;;;;;;;;;;5061548;28;22948;-52
2023/03/20 07:11:27;;;;;;;28.43;21.60;;;;;;;;;;5063468;28;20282;-52
2023/03/20 07:13:54;;;;;;;29.03;20.63;;;;;;;;;;5064744;28;20238;-52
2023/03/20 07:16:21;;;;;;;26.70;19.80;;;;;;;;;;5066657;28;20251;-52
2023/03/20 07:18:48;;;;;;;24.93;17.60;;;;;;;;;;5066310;28;20223;-53
2023/03/20 07:21:17;;;;;;;24.93;20.17;;;;;;;;;;5064019;28;20231;-51
2023/03/20 07:23:45;;;;;;;25.00;18.50;;;;;;;;;;5062408;28;20223;-52
2023/03/20 07:26:12;;;;;;;31.23;19.60;;;;;;;;;;5074528;28;20260;-52
2023/03/20 07:28:39;;;;;;;29.27;19.83;;;;;;;;;;5067217;28;20284;-51
2023/03/20 07:31:06;;;;;;;25.93;18.80;;;;;;;;;;5061918;28;20289;-52
2023/03/20 07:33:32;;;;;;;26.33;18.00;;;;;;;;;;5064200;28;20231;-51
2023/03/20 07:35:59;;;;;;;27.47;18.00;;;;;;;;;;5058355;28;20517;-51
2023/03/20 07:38:26;;;;;;;29.23;17.63;;;;;;;;;;5063023;28;21827;-51
2023/03/20 07:40:55;;;;;;;25.60;18.30;;;;;;;;;;5062283;28;20278;-51
2023/03/20 07:43:21;;;;;;;24.00;17.30;;;;;;;;;;5064639;28;20338;-51
2023/03/20 07:45:48;;;;;;;27.57;17.23;;;;;;;;;;5063525;28;20231;-51
2023/03/20 07:48:15;;;;;;;25.53;17.80;;;;;;;;;;5064068;28;20228;-52
2023/03/20 07:50:41;;;;;;;28.70;19.80;;;;;;;;;;5063149;28;20727;-52
2023/03/20 07:53:08;;;;;;;23.13;17.07;;;;;;;;;;5061762;28;20703;-51
2023/03/20 07:55:34;;;;;;;30.97;17.67;;;;;;;;;;5043429;28;20228;-52
2023/03/20 07:58:02;;;;;;;24.40;17.17;;;;;;;;;;5051303;28;20231;-52
2023/03/20 08:00:30;;;;;;;25.20;17.27;;;;;;;;;;5062698;28;20256;-52
2023/03/20 08:02:57;;;;;;;25.30;17.63;;;;;;;;;;5062813;28;20306;-51
2023/03/20 08:05:23;;;;;;;26.90;17.70;;;;;;;;;;5064048;28;20675;-52
2023/03/20 08:07:50;;;;;;;27.97;17.20;;;;;;;;;;5062850;28;20238;-51
2023/03/20 08:10:17;;;;;;;26.23;18.10;;;;;;;;;;5063556;28;20239;-51
2023/03/20 08:12:43;;;;;;;22.93;15.87;;;;;;;;;;5067413;28;20238;-51
2023/03/20 08:15:11;;;;;;;25.20;17.63;;;;;;;;;;5064823;28;20241;-53
2023/03/20 08:17:38;;;;;;;27.07;18.13;;;;;;;;;;5062296;28;20354;-51
2023/03/20 08:20:05;;;;;;;26.37;17.20;;;;;;;;;;5062624;28;20353;-54
2023/03/20 08:22:32;;;;;;;27.73;18.97;;;;;;;;;;5063317;28;20235;-54
2023/03/20 08:24:59;;;;;;;25.33;17.57;;;;;;;;;;5062149;28;20231;-53
2023/03/20 08:27:25;;;;;;;25.23;16.57;;;;;;;;;;5060934;28;20227;-51
2023/03/20 08:29:52;;;;;;;26.30;15.70;;;;;;;;;;5062685;28;20320;-52
2023/03/20 08:32:20;;;;;;;28.53;17.47;;;;;;;;;;5060493;28;20732;-52
2023/03/20 08:34:46;;;;;;;24.20;17.53;;;;;;;;;;5059424;28;20326;-51
2023/03/20 08:37:14;;;;;;;26.73;17.07;;;;;;;;;;5058347;28;20318;-52
2023/03/20 08:39:41;;;;;;;29.23;18.30;;;;;;;;;;5063652;28;20258;-53
2023/03/20 08:42:07;;;;;;;32.33;18.03;;;;;;;;;;5060288;28;20250;-52
2023/03/20 08:44:34;;;;;;;31.03;17.37;;;;;;;;;;5061025;28;20637;-52
2023/03/20 08:47:01;;;;;;;20.77;14.87;;;;;;;;;;5063142;28;20314;-51
2023/03/20 08:49:29;;;;;;;22.40;16.27;;;;;;;;;;5063541;28;20609;-52
2023/03/20 08:51:56;;;;;;;24.03;15.70;;;;;;;;;;5062910;28;20612;-52
2023/03/20 08:54:22;;;;;;;30.60;16.47;;;;;;;;;;5061889;28;20235;-53
2023/03/20 08:56:49;;;;;;;27.50;15.00;;;;;;;;;;5060934;28;20707;-51
2023/03/20 08:59:15;;;;;;;23.23;16.03;;;;;;;;;;5062730;28;21216;-51
2023/03/20 09:01:42;;;;;;;24.27;15.53;;;;;;;;;;5051918;28;20232;-51
2023/03/20 09:04:08;;;;;;;22.40;15.30;;;;;;;;;;5058374;28;20241;-51
2023/03/20 09:06:37;;;;;;;24.27;14.83;;;;;;;;;;5049202;28;20960;-53
2023/03/20 09:09:04;;;;;;;21.57;15.17;;;;;;;;;;5060531;28;20234;-51
2023/03/20 09:11:31;;;;;;;23.67;15.57;;;;;;;;;;5059270;28;20273;-52
2023/03/20 09:13:57;;;;;;;21.13;14.43;;;;;;;;;;5061364;28;20262;-52
2023/03/20 09:16:23;;;;;;;20.30;13.67;;;;;;;;;;5062514;28;20227;-51
2023/03/20 09:18:50;;;;;;;21.70;13.53;;;;;;;;;;5061337;28;20227;-53
2023/03/20 09:21:16;;;;;;;18.00;12.97;;;;;;;;;;5063174;28;20306;-53
2023/03/20 09:23:44;;;;;;;18.17;12.53;;;;;;;;;;5069970;28;20274;-51
2023/03/20 09:26:10;;;;;;;20.37;14.20;;;;;;;;;;5065555;28;20255;-53
2023/03/20 09:28:37;;;;;;;18.50;12.03;;;;;;;;;;5073353;28;20230;-52
2023/03/20 09:31:03;;;;;;;18.00;12.67;;;;;;;;;;5065104;28;20953;-52
2023/03/20 09:33:30;;;;;;;16.03;12.00;;;;;;;;;;5081044;28;20234;-52
2023/03/20 09:35:56;;;;;;;19.40;11.20;;;;;;;;;;5083036;28;20280;-52
2023/03/20 09:38:23;;;;;;;17.97;12.17;;;;;;;;;;5078641;28;20282;-52
2023/03/20 09:40:52;;;;;;;17.00;12.10;;;;;;;;;;5080919;28;20230;-53
2023/03/20 09:43:37;;;;;;;15.87;10.53;;;;;;;;;;5077018;28;20322;-54
2023/03/20 09:46:09;;;;;;;18.40;12.97;;;;;;;;;;5081926;28;20265;-56
2023/03/20 09:48:40;;;;;;;16.27;11.97;;;;;;;;;;5081879;28;20240;-51
2023/03/20 09:51:11;;;;;;;16.05;10.95;;;;;;;;;;5084126;28;20258;-58
2023/03/20 09:53:39;;;;;;;11.80;9.23;;;;;;;;;;5084660;28;20234;-52
2023/03/20 09:56:14;;;;;;;15.50;10.60;;;;;;;;;;5080663;28;20310;-53
2023/03/20 09:58:42;;;;;;;12.60;9.23;;;;;;;;;;5067396;28;20255;-57
2023/03/20 10:01:13;;;;;;;11.13;8.40;;;;;;;;;;5069276;28;20230;-52
2023/03/20 10:03:43;;;;;;;15.97;10.00;;;;;;;;;;5072175;28;20257;-52
2023/03/20 10:06:12;;;;;;;16.13;11.20;;;;;;;;;;5067462;28;20222;-51
2023/03/20 10:08:41;;;;;;;13.87;9.07;;;;;;;;;;5083292;28;20282;-51
2023/03/20 10:11:29;;;;;;;11.93;8.53;;;;;;;;;;5077226;28;20234;-56
2023/03/20 10:14:05;;;;;;;13.37;9.10;;;;;;;;;;5081014;27;20250;-51
2023/03/20 10:16:37;;;;;;;13.83;8.50;;;;;;;;;;5081609;28;20290;-52
2023/03/20 10:19:07;;;;;;;13.07;9.33;;;;;;;;;;5078115;28;20242;-51
2023/03/20 10:21:38;;;;;;;10.83;8.33;;;;;;;;;;5085176;28;20235;-52
2023/03/20 10:24:05;;;;;;;9.23;7.43;;;;;;;;;;5085389;28;20237;-52
2023/03/20 10:26:35;;;;;;;12.97;8.53;;;;;;;;;;5077199;28;20317;-50
2023/03/20 10:29:05;;;;;;;11.57;8.03;;;;;;;;;;5068451;27;20233;-52
2023/03/20 10:31:34;;;;;;;16.27;8.80;;;;;;;;;;5066958;28;20318;-51
2023/03/20 10:34:11;;;;;;;9.63;7.20;;;;;;;;;;5061005;28;22460;-52
2023/03/20 10:36:43;;;;;;;10.80;8.60;;;;;;;;;;5065040;27;20230;-51
2023/03/20 10:39:12;;;;;;;11.97;7.00;;;;;;;;;;5069991;28;20769;-52
2023/03/20 10:41:42;;;;;;;12.80;7.73;;;;;;;;;;5070299;28;20715;-54
2023/03/20 10:44:10;;;;;;;11.70;8.33;;;;;;;;;;5069254;27;20266;-52
2023/03/20 10:46:41;;;;;;;9.77;7.40;;;;;;;;;;5066833;28;20310;-52
2023/03/20 10:49:11;;;;;;;9.07;7.03;;;;;;;;;;5065755;28;20234;-52
2023/03/20 10:51:39;;;;;;;10.20;7.07;;;;;;;;;;5064295;28;20241;-51
2023/03/20 10:54:08;;;;;;;11.73;7.23;;;;;;;;;;5066201;28;20708;-52
2023/03/20 10:56:36;;;;;;;7.43;5.87;;;;;;;;;;5062794;28;20562;-51
2023/03/20 10:59:06;;;;;;;12.98;7.95;;;;;;;;;;5062510;28;20341;-52
2023/03/20 11:01:33;;;;;;;8.52;5.35;;;;;;;;;;5055912;28;20235;-52
2023/03/20 11:03:59;;;;;;;9.90;7.18;;;;;;;;;;5058884;28;20235;-52
2023/03/20 11:06:27;;;;;;;10.33;6.83;;;;;;;;;;5062715;28;20856;-52
2023/03/20 11:08:54;;;;;;;9.30;6.90;;;;;;;;;;5058177;28;20262;-51
2023/03/20 11:11:25;;;;;;;8.30;5.60;;;;;;;;;;5061891;28;20235;-52
2023/03/20 11:13:52;;;;;;;10.02;6.53;;;;;;;;;;5062299;28;20294;-52
2023/03/20 11:16:21;;;;;;;9.00;6.22;;;;;;;;;;5062666;28;20238;-51
2023/03/20 11:18:48;;;;;;;9.38;6.18;;;;;;;;;;5060504;28;20258;-52
2023/03/20 11:21:16;;;;;;;9.07;6.03;;;;;;;;;;5064057;28;20251;-56
2023/03/20 11:23:43;;;;;;;8.63;5.72;;;;;;;;;;5065857;28;20337;-52
2023/03/20 11:26:13;;;;;;;6.43;5.33;;;;;;;;;;5062576;28;21117;-51
2023/03/20 11:28:41;;;;;;;9.07;6.23;;;;;;;;;;5064286;28;20219;-53
2023/03/20 11:31:15;;;;;;;8.73;6.07;;;;;;;;;;5062470;28;20326;-52
2023/03/20 11:33:44;;;;;;;12.18;6.85;;;;;;;;;;5059432;28;20237;-52
2023/03/20 11:36:12;;;;;;;9.32;6.28;;;;;;;;;;5062050;28;20319;-53
2023/03/20 11:38:43;;;;;;;8.65;6.65;;;;;;;;;;5067473;28;20306;-53
2023/03/20 11:41:16;;;;;;;10.82;6.63;;;;;;;;;;5060857;28;20310;-52
2023/03/20 11:43:43;;;;;;;9.47;6.57;;;;;;;;;;5063500;28;20314;-52
2023/03/20 11:46:10;;;;;;;10.30;7.07;;;;;;;;;;5063344;28;20322;-55
2023/03/20 11:48:37;;;;;;;9.67;7.23;;;;;;;;;;5058551;28;20425;-54
2023/03/20 11:51:07;;;;;;;10.97;6.63;;;;;;;;;;5061503;28;20880;-51
2023/03/20 11:53:34;;;;;;;10.57;7.97;;;;;;;;;;5061697;28;20902;-51
2023/03/20 11:56:06;;;;;;;9.03;7.20;;;;;;;;;;5062783;28;20243;-51
2023/03/20 11:58:33;;;;;;;10.27;6.93;;;;;;;;;;5062091;28;20235;-53
2023/03/20 12:01:01;;;;;;;11.33;7.43;;;;;;;;;;5060874;28;20644;-52
2023/03/20 12:03:36;;;;;;;10.60;7.30;;;;;;;;;;5061363;28;20243;-54
2023/03/20 12:06:05;;;;;;;9.38;6.55;;;;;;;;;;5056405;28;20233;-52
2023/03/20 12:08:36;;;;;;;9.82;6.85;;;;;;;;;;5057028;28;20745;-52
2023/03/20 12:11:06;;;;;;;13.27;7.32;;;;;;;;;;5059742;28;20246;-52
2023/03/20 12:13:35;;;;;;;10.57;7.20;;;;;;;;;;5063037;28;20241;-52
2023/03/20 12:16:02;;;;;;;12.07;7.97;;;;;;;;;;5061372;28;20603;-52
2023/03/20 12:18:31;;;;;;;12.25;7.57;;;;;;;;;;5069757;28;20298;-54
2023/03/20 12:21:02;;;;;;;9.93;7.85;;;;;;;;;;5062475;28;20322;-56
2023/03/20 12:23:31;;;;;;;11.43;7.30;;;;;;;;;;5068375;28;20733;-52
2023/03/20 12:26:01;;;;;;;12.82;8.18;;;;;;;;;;5072957;28;20777;-52
2023/03/20 12:28:30;;;;;;;9.70;6.85;;;;;;;;;;5062621;28;20759;-51
2023/03/20 12:31:10;;;;;;;10.57;7.95;;;;;;;;;;5060613;28;20631;-54
2023/03/20 12:33:42;;;;;;;14.00;8.60;;;;;;;;;;5059459;28;20313;-53
2023/03/20 12:36:12;;;;;;;10.70;7.70;;;;;;;;;;5063348;28;20531;-52
2023/03/20 12:38:38;;;;;;;12.25;8.30;;;;;;;;;;5057110;28;20693;-51
2023/03/20 12:41:11;;;;;;;8.98;7.32;;;;;;;;;;5064314;28;20308;-52
2023/03/20 12:43:42;;;;;;;10.57;7.60;;;;;;;;;;5056234;28;20239;-52
2023/03/20 12:46:11;;;;;;;12.18;9.02;;;;;;;;;;5062538;28;20223;-51
2023/03/20 12:48:42;;;;;;;13.37;8.73;;;;;;;;;;5055894;28;20721;-52
2023/03/20 12:51:12;;;;;;;12.67;8.80;;;;;;;;;;5061903;28;20338;-52
2023/03/20 12:53:46;;;;;;;11.27;8.10;;;;;;;;;;5058308;28;20233;-51
2023/03/20 12:56:22;;;;;;;14.83;9.30;;;;;;;;;;5060555;28;20230;-51
2023/03/20 12:58:53;;;;;;;15.63;10.00;;;;;;;;;;5063435;28;20235;-52
2023/03/20 13:01:20;;;;;;;12.20;8.98;;;;;;;;;;5057242;28;20231;-53
2023/03/20 13:04:07;;;;;;;14.13;8.73;;;;;;;;;;5062333;28;20223;-52
2023/03/20 13:06:41;;;;;;;11.10;8.10;;;;;;;;;;5043977;28;20226;-52
2023/03/20 13:09:24;;;;;;;16.17;10.67;;;;;;;;;;5062075;28;21010;-51
2023/03/20 13:11:55;;;;;;;13.00;9.50;;;;;;;;;;5057201;28;20232;-53
2023/03/20 13:14:26;;;;;;;13.83;9.87;;;;;;;;;;5059182;28;20334;-52
2023/03/20 13:16:56;;;;;;;12.45;9.07;;;;;;;;;;5061152;28;20231;-52
2023/03/20 13:19:26;;;;;;;15.13;9.15;;;;;;;;;;5062430;28;20709;-51
2023/03/20 13:21:56;;;;;;;13.00;8.95;;;;;;;;;;5061870;28;20243;-53
2023/03/20 13:24:38;;;;;;;14.05;9.82;;;;;;;;;;5057543;28;20322;-51
2023/03/20 13:27:19;;;;;;;15.07;9.73;;;;;;;;;;5060965;28;20318;-52
2023/03/20 13:29:48;;;;;;;11.57;9.20;;;;;;;;;;5051589;28;20233;-51
2023/03/20 13:32:18;;;;;;;16.25;9.63;;;;;;;;;;5058310;28;20239;-50
2023/03/20 13:34:54;;;;;;;14.68;10.70;;;;;;;;;;5059197;28;20237;-52
2023/03/20 13:37:23;;;;;;;14.60;10.60;;;;;;;;;;5062124;28;20231;-52
2023/03/20 13:39:58;;;;;;;13.55;9.85;;;;;;;;;;5067359;28;20612;-52
2023/03/20 13:42:29;;;;;;;14.67;10.70;;;;;;;;;;5060701;28;20237;-54
2023/03/20 13:44:58;;;;;;;17.73;11.13;;;;;;;;;;5054875;28;20334;-52
2023/03/20 13:47:27;;;;;;;16.90;10.83;;;;;;;;;;5061524;28;20318;-52
2023/03/20 13:49:58;;;;;;;16.92;11.18;;;;;;;;;;5062221;28;20231;-52
2023/03/20 13:52:28;;;;;;;14.93;10.93;;;;;;;;;;5059785;28;20243;-51
2023/03/20 13:55:10;;;;;;;15.55;10.85;;;;;;;;;;5062068;28;20241;-53
2023/03/20 13:57:57;;;;;;;16.97;10.60;;;;;;;;;;5051756;28;20230;-52
2023/03/20 14:00:28;;;;;;;15.83;10.90;;;;;;;;;;5054043;28;20231;-52
2023/03/20 14:03:09;;;;;;;11.30;9.53;;;;;;;;;;5059935;28;21197;-52
2023/03/20 14:05:36;;;;;;;13.93;10.48;;;;;;;;;;5056547;28;20239;-52
2023/03/20 14:08:20;;;;;;;17.70;12.37;;;;;;;;;;5061996;28;20315;-52
2023/03/20 14:10:47;;;;;;;12.40;9.57;;;;;;;;;;5060499;28;20408;-54
2023/03/20 14:13:16;;;;;;;15.90;10.98;;;;;;;;;;5062019;28;20659;-54
2023/03/20 14:15:49;;;;;;;14.80;9.73;;;;;;;;;;5058167;28;20322;-53
2023/03/20 14:18:17;;;;;;;13.80;9.70;;;;;;;;;;5055793;28;20717;-50
2023/03/20 14:20:44;;;;;;;18.50;10.43;;;;;;;;;;5062885;28;20231;-52
2023/03/20 14:23:17;;;;;;;15.70;10.07;;;;;;;;;;5062138;28;20748;-52
2023/03/20 14:25:44;;;;;;;15.80;9.83;;;;;;;;;;5065824;28;20741;-53
2023/03/20 14:28:24;;;;;;;16.60;10.70;;;;;;;;;;5061884;28;20227;-51
2023/03/20 14:31:11;;;;;;;13.37;9.63;;;;;;;;;;5065937;28;20251;-50
2023/03/20 14:33:42;;;;;;;15.20;10.43;;;;;;;;;;5065372;28;20231;-51
2023/03/20 14:36:19;;;;;;;17.60;11.13;;;;;;;;;;5061800;28;20229;-51
2023/03/20 14:38:49;;;;;;;12.63;9.93;;;;;;;;;;5060742;28;20223;-55
2023/03/20 14:41:19;;;;;;;12.40;9.63;;;;;;;;;;5061370;28;20231;-52